Time;durP1;ratioP1;P1;durP2;ratioP2;P2;SDS_P1;SDS_P2;PMS_P1;PMS_P2;Temp;Humidity;BMP_temperature;BMP_pressure;BME280_temperature;BME280_humidity;BME280_pressure;Samples;Min_cycle;Max_cycle;Signal;HPM_P1;HPM_P2
2021/04/25 00:00:35;;;;;;;7.40;3.57;;;;;;;4.32;53.29;100694.94;1743081;79;21092;-89
2021/04/25 00:03:02;;;;;;;7.50;3.83;;;;;;;4.30;53.43;100688.47;1726512;81;21207;-90
2021/04/25 00:05:29;;;;;;;4.40;3.90;;;;;;;4.27;53.35;100682.97;1772373;80;21140;-90
2021/04/25 00:07:56;;;;;;;6.40;4.17;;;;;;;4.27;53.36;100684.28;1739593;79;21141;-89
2021/04/25 00:10:24;;;;;;;4.17;3.77;;;;;;;4.26;53.28;100681.81;1747496;79;21220;-90
2021/04/25 00:12:51;;;;;;;13.00;6.87;;;;;;;4.26;53.23;100685.28;1736432;80;21175;-89
2021/04/25 00:15:25;;;;;;;13.20;6.93;;;;;;;4.24;53.37;100679.30;1759593;80;21199;-89
2021/04/25 00:17:53;;;;;;;11.20;6.73;;;;;;;4.23;53.31;100676.30;1762845;80;21136;-89
2021/04/25 00:20:22;;;;;;;9.40;6.63;;;;;;;3.97;53.29;100636.94;1750711;80;21141;-90
2021/04/25 00:22:50;;;;;;;13.33;6.23;;;;;;;4.21;53.33;100675.61;1753315;80;21135;-89
2021/04/25 00:25:19;;;;;;;18.67;11.50;;;;;;;4.21;53.28;100674.79;1726905;82;21200;-88
2021/04/25 00:27:47;;;;;;;22.10;10.63;;;;;;;4.19;53.39;100678.05;1688565;82;21218;-86
2021/04/25 00:30:18;;;;;;;21.80;11.90;;;;;;;4.17;53.31;100674.23;1718015;81;21172;-88
2021/04/25 00:32:47;;;;;;;16.77;9.27;;;;;;;4.18;53.31;100671.95;1726210;81;21306;-87
2021/04/25 00:35:17;;;;;;;21.40;11.73;;;;;;;4.17;53.41;100674.23;1721836;81;21100;-87
2021/04/25 00:37:47;;;;;;;24.87;12.30;;;;;;;4.19;53.42;100673.60;1701587;82;21644;-83
2021/04/25 00:40:16;;;;;;;18.73;10.33;;;;;;;4.19;53.38;100671.46;1724138;81;21381;-89
2021/04/25 00:42:44;;;;;;;17.77;10.23;;;;;;;4.18;53.33;100665.82;1716163;81;21191;-90
2021/04/25 00:45:15;;;;;;;19.87;10.77;;;;;;;4.19;53.42;100662.22;1715016;80;21113;-87
2021/04/25 00:47:48;;;;;;;12.70;7.30;;;;;;;4.18;53.42;100668.00;1694909;82;21234;-90
2021/04/25 00:50:23;;;;;;;8.37;3.87;;;;;;;4.17;53.52;100661.53;1712645;81;21361;-88
2021/04/25 00:52:55;;;;;;;6.43;3.53;;;;;;;4.16;53.33;100657.22;1709620;82;21703;-89
2021/04/25 00:55:28;;;;;;;4.43;3.03;;;;;;;4.14;53.40;100653.88;1698765;82;21752;-88
2021/04/25 00:57:57;;;;;;;4.07;3.00;;;;;;;4.14;53.31;100656.52;1732626;81;21622;-83
2021/04/25 01:00:26;;;;;;;4.47;2.37;;;;;;;4.14;53.26;100643.33;1700541;82;21084;-87
2021/04/25 01:02:55;;;;;;;3.10;1.90;;;;;;;4.12;53.41;100646.10;1712355;82;21584;-88
2021/04/25 01:05:23;;;;;;;3.70;2.73;;;;;;;4.12;53.43;100641.32;1712187;82;21189;-89
2021/04/25 01:07:51;;;;;;;2.87;1.97;;;;;;;4.09;53.42;100644.59;1730109;82;21190;-90
2021/04/25 01:10:19;;;;;;;4.17;2.37;;;;;;;4.09;53.40;100635.35;1707166;83;21670;-89
2021/04/25 01:12:47;;;;;;;5.70;3.17;;;;;;;4.11;53.27;100632.58;1687579;83;21347;-87
2021/04/25 01:15:16;;;;;;;2.67;2.17;;;;;;;4.12;53.45;100633.41;1723175;82;21196;-86
2021/04/25 01:17:48;;;;;;;2.93;2.53;;;;;;;4.11;53.75;100633.90;1706379;83;21288;-89
2021/04/25 01:20:19;;;;;;;5.43;3.50;;;;;;;4.09;53.75;100630.57;1715760;81;21168;-89
2021/04/25 01:22:47;;;;;;;5.00;3.30;;;;;;;4.07;53.78;100635.98;1714900;82;21291;-88
2021/04/25 01:25:19;;;;;;;4.03;3.50;;;;;;;4.05;53.75;100632.65;1724863;81;21251;-89
2021/04/25 01:27:47;;;;;;;5.03;2.93;;;;;;;4.03;53.79;100629.32;1735366;82;21290;-84
2021/04/25 01:30:19;;;;;;;3.70;3.40;;;;;;;3.99;53.92;100617.35;1739773;81;21223;-89
2021/04/25 01:32:47;;;;;;;8.87;3.77;;;;;;;3.97;53.98;100626.39;1724833;81;21634;-89
2021/04/25 01:35:23;;;;;;;3.57;3.27;;;;;;;3.93;54.09;100623.19;1689590;83;21074;-89
2021/04/25 01:37:57;;;;;;;5.63;4.37;;;;;;;3.89;54.25;100623.13;1737731;80;22380;-90
2021/04/25 01:40:27;;;;;;;6.93;4.13;;;;;;;3.87;54.35;100625.07;1722015;81;21192;-89
2021/04/25 01:42:56;;;;;;;3.73;3.33;;;;;;;3.84;54.54;100620.92;1715051;81;21308;-90
2021/04/25 01:45:23;;;;;;;6.93;5.33;;;;;;;3.79;54.54;100620.48;1741511;82;21665;-85
2021/04/25 01:47:56;;;;;;;4.90;3.60;;;;;;;3.75;54.56;100616.46;1733602;81;21754;-84
2021/04/25 01:50:25;;;;;;;5.67;3.80;;;;;;;3.71;54.50;100613.73;1747130;82;21899;-85
2021/04/25 01:52:54;;;;;;;8.67;4.07;;;;;;;3.69;54.77;100619.16;1737834;80;21372;-89
2021/04/25 01:55:25;;;;;;;5.33;4.13;;;;;;;3.63;54.99;100618.37;1749990;80;21215;-90
2021/04/25 01:57:53;;;;;;;4.77;3.90;;;;;;;3.59;55.11;100605.61;1723267;81;21200;-89
2021/04/25 02:00:31;;;;;;;6.63;3.40;;;;;;;3.56;55.56;100608.05;1735836;80;21204;-89
2021/04/25 02:03:00;;;;;;;5.40;4.73;;;;;;;2.58;55.78;100457.31;1738676;81;21622;-89
2021/04/25 02:05:27;;;;;;;6.77;4.60;;;;;;;3.50;56.15;100610.73;1718236;81;21362;-88
2021/04/25 02:07:55;;;;;;;5.63;4.20;;;;;;;3.48;56.47;100605.23;1734457;82;21213;-89
2021/04/25 02:10:24;;;;;;;5.53;4.57;;;;;;;3.44;56.64;100609.11;1752101;80;21294;-90
2021/04/25 02:12:52;;;;;;;9.33;5.50;;;;;;;3.39;56.84;100606.05;1772662;78;21185;-89
2021/04/25 02:15:22;;;;;;;7.80;5.57;;;;;;;3.37;56.96;100606.66;1759501;79;21280;-89
2021/04/25 02:17:50;;;;;;;7.63;5.27;;;;;;;3.32;56.96;100604.45;1745520;81;21191;-89
2021/04/25 02:20:21;;;;;;;6.23;5.60;;;;;;;3.33;57.09;100603.47;1760592;79;21350;-88
2021/04/25 02:22:49;;;;;;;9.67;6.07;;;;;;;3.35;57.07;100607.28;1760789;78;21471;-89
2021/04/25 02:25:17;;;;;;;7.13;5.00;;;;;;;3.32;57.12;100605.77;1778558;79;21307;-89
2021/04/25 02:27:46;;;;;;;8.03;4.63;;;;;;;3.34;57.19;100606.95;1715248;82;21903;-86
2021/04/25 02:30:21;;;;;;;5.67;5.00;;;;;;;3.32;57.28;100597.86;1695306;83;21648;-89
2021/04/25 02:32:51;;;;;;;7.60;5.20;;;;;;;3.30;57.38;100603.26;1709565;83;21694;-91
2021/04/25 02:35:19;;;;;;;6.47;4.90;;;;;;;3.31;57.36;100601.45;1724510;82;21234;-91
2021/04/25 02:37:48;;;;;;;7.93;4.80;;;;;;;3.27;57.42;100594.30;1710184;83;21212;-90
2021/04/25 02:40:20;;;;;;;6.63;4.80;;;;;;;3.29;57.44;100600.27;1715521;82;21196;-87
2021/04/25 02:42:48;;;;;;;5.60;4.60;;;;;;;3.30;57.61;100601.12;1725547;82;21511;-90
2021/04/25 02:45:19;;;;;;;5.03;3.80;;;;;;;3.29;57.57;100600.75;1716575;81;21614;-85
2021/04/25 02:47:53;;;;;;;8.70;5.07;;;;;;;3.31;57.72;100600.13;1682557;83;21350;-90
2021/04/25 02:50:26;;;;;;;8.70;4.63;;;;;;;3.31;57.65;100593.08;1712780;82;21752;-88
2021/04/25 02:52:54;;;;;;;5.83;4.10;;;;;;;3.34;57.67;100595.09;1748106;80;21338;-88
2021/04/25 02:58:07;;;;;;;6.77;4.97;;;;;;;3.47;57.57;100586.45;1895053;74;22440;-91
2021/04/25 03:00:35;;;;;;;7.33;5.13;;;;;;;3.53;57.53;100585.08;1862984;75;21084;-89
2021/04/25 03:03:03;;;;;;;4.93;4.40;;;;;;;3.60;57.63;100584.85;1808331;78;21173;-90
2021/04/25 03:05:31;;;;;;;8.07;4.27;;;;;;;3.66;57.52;100585.64;1802632;77;21607;-86
2021/04/25 03:07:58;;;;;;;7.63;4.40;;;;;;;3.78;57.27;100588.98;1809725;77;21297;-90
2021/04/25 03:10:26;;;;;;;5.77;4.77;;;;;;;3.97;56.93;100583.70;1806525;77;21144;-89
2021/04/25 03:12:55;;;;;;;4.67;4.13;;;;;;;4.21;55.88;100585.91;1808559;77;21242;-91
2021/04/25 03:15:23;;;;;;;5.40;4.70;;;;;;;4.49;54.97;100592.60;1773368;79;21150;-90
2021/04/25 03:17:51;;;;;;;5.60;4.13;;;;;;;4.85;54.87;100590.95;1803798;78;21144;-89
2021/04/25 03:20:22;;;;;;;6.57;4.30;;;;;;;5.20;53.22;100593.88;1777387;78;21205;-90
2021/04/25 03:22:50;;;;;;;6.47;3.60;;;;;;;5.37;52.90;100590.91;1796460;76;21111;-90
2021/04/25 03:25:18;;;;;;;5.73;4.40;;;;;;;5.38;52.72;100590.77;1800081;78;21202;-91
2021/04/25 03:27:45;;;;;;;7.30;4.80;;;;;;;5.36;52.85;100595.87;1796953;78;21182;-92
2021/04/25 03:30:15;;;;;;;5.93;4.83;;;;;;;5.29;53.02;100592.14;1794907;78;21309;-89
2021/04/25 03:32:43;;;;;;;5.23;4.60;;;;;;;5.22;53.37;100601.17;1799932;78;21224;-90
2021/04/25 03:35:14;;;;;;;6.23;4.93;;;;;;;5.17;53.43;100592.84;1810606;77;21107;-91
2021/04/25 03:37:41;;;;;;;5.53;4.30;;;;;;;5.13;53.41;100596.27;1801118;78;21320;-90
2021/04/25 03:40:12;;;;;;;5.67;4.43;;;;;;;5.08;53.73;100586.61;1805296;77;21212;-89
2021/04/25 03:42:40;;;;;;;5.10;3.97;;;;;;;5.06;53.83;100585.93;1801268;78;21200;-88
2021/04/25 03:45:16;;;;;;;5.33;4.53;;;;;;;5.00;53.56;100581.23;1789809;77;21143;-87
2021/04/25 03:47:45;;;;;;;6.57;4.67;;;;;;;4.96;53.32;100580.70;1738431;80;21211;-91
2021/04/25 03:50:16;;;;;;;8.77;3.67;;;;;;;4.88;53.08;100578.78;1735560;80;21246;-90
2021/04/25 03:52:46;;;;;;;6.70;4.30;;;;;;;4.82;53.13;100578.52;1736293;81;21158;-89
2021/04/25 03:55:15;;;;;;;13.57;5.70;;;;;;;4.73;52.99;100580.23;1717610;81;21340;-90
2021/04/25 03:57:43;;;;;;;6.63;5.93;;;;;;;4.66;53.19;100579.97;1708164;82;21218;-91
2021/04/25 04:00:14;;;;;;;6.57;5.03;;;;;;;4.77;53.58;100581.61;1714821;81;21323;-91
2021/04/25 04:02:41;;;;;;;6.13;4.70;;;;;;;5.10;52.92;100578.05;1749078;80;21180;-94
2021/04/25 04:05:10;;;;;;;9.63;5.10;;;;;;;5.71;52.24;100576.58;1750372;80;21411;-94
2021/04/25 04:07:37;;;;;;;7.10;5.10;;;;;;;6.52;51.10;100574.27;1739104;81;21176;-92
2021/04/25 04:10:05;;;;;;;7.57;4.70;;;;;;;7.47;49.23;100564.88;1767575;80;21180;-90
2021/04/25 04:12:32;;;;;;;6.00;4.93;;;;;;;8.43;46.76;100565.28;1756117;80;21288;-93
2021/04/25 04:15:00;;;;;;;6.20;4.87;;;;;;;9.18;43.60;100566.20;1743727;80;21188;-92
2021/04/25 04:17:27;;;;;;;6.53;5.17;;;;;;;9.70;42.39;100570.05;1775127;76;21159;-93
2021/04/25 04:19:54;;;;;;;6.67;4.40;;;;;;;10.03;41.57;100567.98;1749036;80;21188;-93
2021/04/25 04:22:21;;;;;;;7.87;4.60;;;;;;;10.30;41.00;100563.08;1761215;80;21189;-80
2021/04/25 04:24:48;;;;;;;9.23;5.27;;;;;;;10.59;40.22;100562.33;1761353;80;21160;-80
2021/04/25 04:27:15;;;;;;;8.47;4.07;;;;;;;10.83;39.81;100551.05;1767815;80;21212;-80
2021/04/25 04:29:43;;;;;;;5.47;4.87;;;;;;;11.02;39.72;100558.51;1748496;80;21384;-81
2021/04/25 04:32:10;;;;;;;6.30;5.30;;;;;;;11.19;39.43;100552.95;1752125;80;21242;-79
2021/04/25 04:34:37;;;;;;;4.87;4.37;;;;;;;11.43;38.46;100553.97;1757053;80;21105;-79
2021/04/25 04:37:05;;;;;;;4.43;4.03;;;;;;;11.83;38.78;100553.55;1774625;80;21489;-79
2021/04/25 04:39:32;;;;;;;5.57;3.90;;;;;;;12.38;38.15;100555.98;1772633;80;21786;-80
2021/04/25 04:42:03;;;;;;;6.47;4.10;;;;;;;12.81;36.64;100552.34;1764940;80;21301;-79
2021/04/25 04:44:30;;;;;;;6.03;3.53;;;;;;;13.17;35.06;100557.96;1759557;80;21160;-78
2021/04/25 04:49:48;;;;;;;5.22;4.15;;;;;;;13.63;34.41;100544.72;1792767;79;23047;-79
2021/04/25 04:52:15;;;;;;;4.60;3.30;;;;;;;13.80;33.58;100545.67;1758724;80;21575;-79
2021/04/25 04:54:42;;;;;;;6.55;3.62;;;;;;;14.01;32.46;100555.37;1756881;80;21168;-79
2021/04/25 04:57:09;;;;;;;4.08;3.55;;;;;;;14.15;32.18;100551.67;1710644;80;21072;-79
2021/04/25 04:59:36;;;;;;;7.45;3.77;;;;;;;14.41;32.20;100549.50;1705841;82;21202;-78
2021/04/25 05:02:03;;;;;;;5.45;2.92;;;;;;;14.69;31.39;100552.97;1704169;81;21044;-78
2021/04/25 05:04:29;;;;;;;8.90;4.10;;;;;;;14.78;30.84;100555.21;1710279;81;21613;-78
2021/04/25 05:06:57;;;;;;;4.80;3.35;;;;;;;14.71;31.14;100545.53;1670701;84;21685;-79
2021/04/25 05:09:24;;;;;;;3.72;3.37;;;;;;;14.64;31.71;100553.61;1669748;84;21235;-78
2021/04/25 05:11:51;;;;;;;8.23;4.53;;;;;;;14.65;31.36;100550.41;1671862;84;21127;-81
2021/04/25 05:14:18;;;;;;;3.50;3.17;;;;;;;14.73;31.44;100556.88;1661348;85;21206;-80
2021/04/25 05:16:45;;;;;;;7.60;4.85;;;;;;;14.87;30.96;100548.30;1687863;83;21229;-81
2021/04/25 05:19:12;;;;;;;4.92;4.15;;;;;;;14.80;31.25;100542.93;1689352;83;21210;-80
2021/04/25 05:21:39;;;;;;;6.55;4.05;;;;;;;14.55;31.50;100558.34;1644048;86;21236;-78
2021/04/25 05:24:08;;;;;;;4.55;4.08;;;;;;;14.28;31.75;100558.89;1690630;82;21044;-79
2021/04/25 05:26:37;;;;;;;9.98;6.37;;;;;;;13.87;32.57;100559.09;1658651;86;21205;-79
2021/04/25 05:29:05;;;;;;;6.85;4.35;;;;;;;13.80;32.95;100547.83;1684565;84;21405;-79
2021/04/25 05:31:32;;;;;;;4.40;4.00;;;;;;;13.79;32.65;100542.18;1656790;86;21211;-79
2021/04/25 05:34:00;;;;;;;5.22;4.20;;;;;;;13.50;33.55;100552.72;1686452;81;21117;-77
2021/04/25 05:36:27;;;;;;;5.45;4.50;;;;;;;13.50;34.02;100547.89;1674308;84;22212;-79
2021/04/25 05:38:54;;;;;;;6.03;3.95;;;;;;;13.46;33.71;100549.33;1640699;85;21852;-79
2021/04/25 05:41:23;;;;;;;7.35;4.97;;;;;;;13.29;34.14;100558.20;1694109;84;21183;-78
2021/04/25 05:43:51;;;;;;;5.22;3.90;;;;;;;13.05;34.72;100553.18;1662667;86;21228;-79
2021/04/25 05:46:19;;;;;;;6.67;4.65;;;;;;;13.02;34.71;100550.89;1631882;87;21123;-78
2021/04/25 05:48:48;;;;;;;4.90;4.20;;;;;;;13.24;34.51;100553.44;1641149;85;21204;-78
2021/04/25 05:51:16;;;;;;;7.58;3.72;;;;;;;13.35;34.48;100555.56;1619699;86;21343;-78
2021/04/25 05:53:43;;;;;;;9.48;4.67;;;;;;;13.37;34.64;100556.70;1641837;85;21327;-79
2021/04/25 05:56:13;;;;;;;4.08;3.65;;;;;;;13.40;34.55;100554.98;1667332;84;21103;-78
2021/04/25 05:58:40;;;;;;;5.28;3.87;;;;;;;13.46;34.54;100547.47;1670058;84;21195;-79
2021/04/25 06:01:07;;;;;;;5.22;3.70;;;;;;;13.24;34.40;100485.17;1687867;83;21139;-79
2021/04/25 06:03:34;;;;;;;3.90;3.60;;;;;;;13.54;34.55;100543.77;1712860;83;21212;-81
2021/04/25 06:06:02;;;;;;;8.18;4.58;;;;;;;13.57;34.46;100542.86;1713330;82;21169;-79
2021/04/25 06:08:29;;;;;;;3.50;3.20;;;;;;;13.63;34.62;100538.54;1717536;82;21624;-82
2021/04/25 06:10:56;;;;;;;5.62;4.25;;;;;;;13.63;34.83;100545.23;1720632;83;21205;-76
2021/04/25 06:13:23;;;;;;;5.42;4.65;;;;;;;13.73;34.72;100543.50;1712718;82;21101;-77
2021/04/25 06:15:51;;;;;;;5.85;4.15;;;;;;;13.98;34.91;100549.92;1690641;84;21243;-80
2021/04/25 06:18:18;;;;;;;4.78;3.75;;;;;;;14.22;33.69;100548.98;1708631;82;22273;-79
2021/04/25 06:20:45;;;;;;;5.28;4.10;;;;;;;14.25;33.45;100550.44;1710108;82;21766;-77
2021/04/25 06:23:13;;;;;;;3.77;3.47;;;;;;;14.21;33.52;100549.50;1708184;82;21116;-79
2021/04/25 06:25:41;;;;;;;4.40;4.00;;;;;;;14.11;34.02;100544.23;1697985;83;21185;-77
2021/04/25 06:28:08;;;;;;;4.20;3.90;;;;;;;14.20;33.65;100549.20;1708856;82;21834;-79
2021/04/25 06:30:35;;;;;;;4.78;4.10;;;;;;;14.16;33.96;100542.59;1708600;82;21164;-79
2021/04/25 06:33:03;;;;;;;3.92;3.52;;;;;;;14.21;33.79;100554.05;1707934;82;21187;-77
2021/04/25 06:35:30;;;;;;;4.40;4.00;;;;;;;14.07;34.01;100542.52;1692121;83;21204;-79
2021/04/25 06:37:57;;;;;;;4.42;3.70;;;;;;;14.02;33.88;100537.75;1709605;82;21184;-77
2021/04/25 06:40:25;;;;;;;5.67;4.05;;;;;;;13.88;34.32;100550.02;1721201;82;21991;-77
2021/04/25 06:42:52;;;;;;;7.12;3.60;;;;;;;13.63;34.72;100543.90;1685838;83;21193;-76
2021/04/25 06:45:22;;;;;;;4.03;3.62;;;;;;;13.63;35.61;100547.92;1687551;82;21252;-76
2021/04/25 06:47:50;;;;;;;4.53;3.92;;;;;;;13.85;34.78;100551.25;1680714;83;21367;-77
2021/04/25 06:50:18;;;;;;;4.40;4.00;;;;;;;14.09;34.28;100552.52;1669638;85;21739;-80
2021/04/25 06:52:47;;;;;;;6.53;4.17;;;;;;;14.24;34.64;100542.92;1677048;85;21710;-78
2021/04/25 06:55:19;;;;;;;4.28;3.02;;;;;;;14.36;33.76;100532.37;1672972;83;21185;-78
2021/04/25 06:57:48;;;;;;;5.97;3.25;;;;;;;14.20;33.95;100545.19;1677582;83;21312;-77
2021/04/25 07:00:18;;;;;;;3.90;3.47;;;;;;;13.93;34.36;100547.02;1672935;84;21196;-79
2021/04/25 07:02:45;;;;;;;4.50;3.70;;;;;;;13.68;34.33;100541.97;1668903;84;21180;-78
2021/04/25 07:05:14;;;;;;;3.62;3.20;;;;;;;13.57;34.82;100538.84;1683779;83;21225;-77
2021/04/25 07:07:42;;;;;;;5.08;3.90;;;;;;;13.51;35.15;100545.54;1683324;85;21196;-82
2021/04/25 07:10:11;;;;;;;3.50;3.20;;;;;;;13.36;35.24;100539.83;1681104;83;21363;-81
2021/04/25 07:12:37;;;;;;;7.28;4.05;;;;;;;13.27;35.16;100548.21;1685194;84;21102;-80
2021/04/25 07:15:07;;;;;;;5.45;3.47;;;;;;;13.13;35.21;100551.33;1685817;84;21224;-77
2021/04/25 07:17:35;;;;;;;5.53;3.65;;;;;;;12.92;35.75;100552.27;1689248;84;21757;-78
2021/04/25 07:20:07;;;;;;;4.25;3.50;;;;;;;12.73;36.51;100555.98;1693360;84;21210;-79
2021/04/25 07:22:38;;;;;;;5.20;3.67;;;;;;;12.63;37.81;100552.84;1689767;84;21112;-79
2021/04/25 07:25:08;;;;;;;5.22;4.72;;;;;;;12.55;36.80;100555.69;1664874;85;21165;-77
2021/04/25 07:27:37;;;;;;;5.30;4.28;;;;;;;12.34;37.21;100548.52;1670525;85;21187;-79
2021/04/25 07:30:10;;;;;;;8.65;3.77;;;;;;;12.18;37.74;100553.14;1637515;86;21361;-77
2021/04/25 07:32:38;;;;;;;4.55;3.92;;;;;;;12.11;37.70;100546.94;1666777;85;21196;-79
2021/04/25 07:35:07;;;;;;;5.25;4.47;;;;;;;12.06;37.56;100538.67;1681840;83;21093;-80
2021/04/25 07:37:36;;;;;;;4.90;3.30;;;;;;;12.07;37.46;100544.31;1681835;83;21501;-82
2021/04/25 07:40:07;;;;;;;4.45;3.72;;;;;;;12.15;37.75;100545.53;1672406;83;21306;-79
2021/04/25 07:42:36;;;;;;;4.53;3.22;;;;;;;12.25;37.43;100550.53;1691411;84;21176;-77
2021/04/25 07:45:12;;;;;;;3.17;2.85;;;;;;;12.31;37.27;100545.74;1697194;83;21619;-81
2021/04/25 07:47:42;;;;;;;3.80;3.40;;;;;;;12.26;36.71;100541.48;1692096;83;21675;-79
2021/04/25 07:50:13;;;;;;;5.20;2.65;;;;;;;12.15;36.69;100540.67;1703255;83;21212;-82
2021/04/25 07:52:42;;;;;;;3.45;3.15;;;;;;;12.10;36.91;100549.80;1691863;83;21612;-80
2021/04/25 07:55:10;;;;;;;5.23;2.57;;;;;;;12.04;36.85;100546.05;1691529;83;21177;-81
2021/04/25 07:57:38;;;;;;;3.83;3.53;;;;;;;11.96;36.98;100541.68;1657150;84;21212;-81
2021/04/25 08:00:09;;;;;;;3.10;2.83;;;;;;;11.98;37.15;100541.46;1660793;84;21175;-80
2021/04/25 08:02:37;;;;;;;10.47;2.90;;;;;;;12.03;36.79;100543.88;1654585;84;21188;-81
2021/04/25 08:05:06;;;;;;;3.60;2.95;;;;;;;12.08;36.51;100539.30;1659080;84;21180;-80
2021/04/25 08:07:34;;;;;;;3.70;2.50;;;;;;;12.01;36.58;100535.75;1658077;84;21864;-82
2021/04/25 08:10:02;;;;;;;5.80;2.70;;;;;;;11.89;37.33;100538.09;1628002;86;21661;-80
2021/04/25 08:12:30;;;;;;;3.35;3.05;;;;;;;11.79;37.60;100544.24;1639638;85;21141;-82
2021/04/25 08:14:57;;;;;;;5.17;3.60;;;;;;;11.47;38.22;100516.54;1643291;85;21740;-80
2021/04/25 08:17:24;;;;;;;3.93;3.00;;;;;;;11.57;38.44;100538.09;1693212;83;21218;-83
2021/04/25 08:19:53;;;;;;;5.50;4.17;;;;;;;11.45;38.42;100534.59;1644465;85;21219;-80
2021/04/25 08:22:20;;;;;;;4.03;2.30;;;;;;;11.39;38.23;100527.83;1625455;85;21339;-81
2021/04/25 08:24:46;;;;;;;3.30;2.63;;;;;;;11.42;38.47;100520.27;1655734;85;21184;-80
2021/04/25 08:27:13;;;;;;;3.93;3.63;;;;;;;11.42;38.01;100522.13;1648964;84;21410;-78
2021/04/25 08:29:41;;;;;;;3.37;2.93;;;;;;;11.34;37.94;100520.41;1645548;85;21229;-83
2021/04/25 08:32:08;;;;;;;3.10;2.90;;;;;;;11.34;38.39;100518.22;1672691;84;22250;-83
2021/04/25 08:34:35;;;;;;;3.40;3.10;;;;;;;11.39;38.26;100513.97;1664841;83;21115;-87
2021/04/25 08:37:02;;;;;;;4.13;3.83;;;;;;;11.46;37.94;100516.72;1647484;85;21212;-83
2021/04/25 08:39:29;;;;;;;3.53;3.20;;;;;;;11.44;37.63;100507.56;1658383;84;21206;-77
2021/04/25 08:41:56;;;;;;;4.30;3.17;;;;;;;11.40;37.68;100506.30;1648246;85;21258;-85
2021/04/25 08:44:25;;;;;;;3.93;3.37;;;;;;;11.37;38.20;100516.52;1663606;84;21136;-91
2021/04/25 08:46:54;;;;;;;3.73;3.43;;;;;;;11.25;38.15;100520.20;1650108;85;21200;-89
2021/04/25 08:49:25;;;;;;;3.30;3.00;;;;;;;11.11;38.16;100521.87;1669179;83;21180;-89
2021/04/25 08:51:55;;;;;;;4.67;3.73;;;;;;;10.97;38.71;100524.08;1695514;83;21204;-91
2021/04/25 08:54:24;;;;;;;4.03;3.63;;;;;;;10.87;39.08;100528.37;1651992;85;21164;-86
2021/04/25 08:56:53;;;;;;;4.53;3.70;;;;;;;10.81;39.28;100519.75;1634388;86;21276;-93
2021/04/25 08:59:20;;;;;;;3.50;3.23;;;;;;;10.71;39.32;100526.70;1650366;85;21501;-90
2021/04/25 09:01:47;;;;;;;5.27;3.57;;;;;;;10.63;39.55;100524.96;1620998;86;21172;-88
2021/04/25 09:04:16;;;;;;;4.40;3.83;;;;;;;10.58;40.08;100524.68;1619092;87;21286;-91
2021/04/25 09:06:59;;;;;;;3.90;3.00;;;;;;;10.48;40.24;100516.14;1619295;87;21192;-92
2021/04/25 09:09:45;;;;;;;5.00;3.87;;;;;;;10.37;41.10;100518.75;1659353;85;21156;-88
2021/04/25 09:12:44;;;;;;;4.20;3.80;;;;;;;10.24;42.12;100523.33;1655777;85;21113;-89
2021/04/25 09:15:18;;;;;;;4.83;3.33;;;;;;;10.16;42.26;100514.10;1662107;86;21453;-85
2021/04/25 09:18:01;;;;;;;5.03;3.70;;;;;;;10.11;42.51;100507.15;1662544;86;21200;-86
2021/04/25 09:20:40;;;;;;;4.03;3.73;;;;;;;10.11;43.71;100511.99;1643009;86;21186;-83
2021/04/25 09:23:13;;;;;;;10.50;4.20;;;;;;;10.12;44.10;100508.30;1653838;85;21062;-82
2021/04/25 09:25:56;;;;;;;6.00;4.57;;;;;;;10.17;44.85;100502.45;1654536;86;21354;-84
2021/04/25 09:28:24;;;;;;;4.70;3.97;;;;;;;10.17;44.32;100506.45;1671292;85;21655;-84
2021/04/25 09:31:02;;;;;;;5.60;4.57;;;;;;;10.25;45.59;100504.20;1666571;85;21192;-84
2021/04/25 09:33:52;;;;;;;5.40;4.27;;;;;;;10.31;43.57;100498.98;1645933;86;21135;-86
2021/04/25 09:36:26;;;;;;;4.80;4.00;;;;;;;10.40;43.83;100486.93;1647322;84;21234;-86
2021/04/25 09:39:10;;;;;;;4.27;3.93;;;;;;;10.57;43.46;100498.20;1657673;84;21348;-88
2021/04/25 09:41:39;;;;;;;6.70;4.07;;;;;;;10.64;42.31;100501.31;1649095;84;21233;-86
2021/04/25 09:44:07;;;;;;;4.60;4.13;;;;;;;10.67;42.07;100495.59;1660676;84;21675;-89
2021/04/25 09:46:58;;;;;;;5.53;4.30;;;;;;;10.74;41.98;100489.50;1780898;78;23338;-89
2021/04/25 09:49:52;;;;;;;5.07;4.20;;;;;;;10.74;42.42;100500.17;1784732;78;21875;-88
2021/04/25 09:52:32;;;;;;;4.27;3.53;;;;;;;10.78;42.25;100502.30;1781245;78;21184;-86
2021/04/25 09:55:23;;;;;;;4.37;3.97;;;;;;;10.83;41.65;100500.39;1789799;78;22082;-88
2021/04/25 09:57:55;;;;;;;6.20;3.57;;;;;;;10.81;41.54;100494.42;1786389;78;21227;-87
2021/04/25 10:00:23;;;;;;;4.50;3.60;;;;;;;10.81;42.01;100486.42;1769176;78;21333;-87
2021/04/25 10:03:09;;;;;;;4.63;4.03;;;;;;;10.93;42.50;100480.95;1724131;81;21342;-89
2021/04/25 10:05:37;;;;;;;3.73;3.13;;;;;;;11.14;41.64;100475.34;1726726;81;21142;-85
2021/04/25 10:08:05;;;;;;;3.80;3.47;;;;;;;11.32;40.92;100470.40;1724959;81;21663;-82
2021/04/25 10:10:35;;;;;;;5.33;4.30;;;;;;;11.47;40.21;100466.31;1687152;84;21300;-86
2021/04/25 10:13:03;;;;;;;3.53;3.07;;;;;;;11.55;39.47;100468.05;1724446;81;21079;-83
2021/04/25 10:15:30;;;;;;;3.40;3.10;;;;;;;11.60;39.34;100462.94;1701699;82;21156;-83
2021/04/25 10:18:00;;;;;;;3.03;2.80;;;;;;;11.63;38.57;100467.39;1708930;82;21198;-84
2021/04/25 10:20:27;;;;;;;5.93;3.13;;;;;;;11.61;38.38;100468.61;1707105;82;21197;-86
2021/04/25 10:22:55;;;;;;;3.83;3.47;;;;;;;11.62;38.07;100466.24;1712363;82;21104;-84
2021/04/25 10:25:35;;;;;;;3.27;2.93;;;;;;;11.64;38.14;100464.20;1728807;82;21338;-83
2021/04/25 10:28:31;;;;;;;5.63;3.10;;;;;;;11.63;38.20;100470.58;1679354;84;21750;-87
2021/04/25 10:31:12;;;;;;;6.23;3.40;;;;;;;11.64;38.24;100470.39;1697485;82;21228;-84
2021/04/25 10:33:59;;;;;;;3.20;2.90;;;;;;;11.48;37.83;100430.61;1708118;82;21036;-85
2021/04/25 10:36:51;;;;;;;5.50;2.67;;;;;;;11.64;38.25;100458.86;1675336;84;21193;-87
2021/04/25 10:39:41;;;;;;;5.67;2.23;;;;;;;11.59;38.23;100459.97;1678168;83;21212;-86
2021/04/25 10:42:25;;;;;;;3.50;2.30;;;;;;;11.56;38.68;100469.69;1683076;83;21202;-84
2021/04/25 10:45:04;;;;;;;4.57;3.43;;;;;;;11.51;38.57;100460.94;1672817;84;21106;-86
2021/04/25 10:47:38;;;;;;;3.47;3.17;;;;;;;11.49;38.51;100463.79;1694845;84;21204;-87
2021/04/25 10:50:23;;;;;;;4.80;3.55;;;;;;;11.44;38.16;100465.38;1713598;83;21381;-86
2021/04/25 10:52:51;;;;;;;5.17;3.43;;;;;;;11.31;38.56;100470.07;1721657;83;21831;-86
2021/04/25 10:55:25;;;;;;;3.23;2.80;;;;;;;11.24;38.08;100461.98;1715429;83;21186;-87
2021/04/25 10:58:01;;;;;;;2.77;2.57;;;;;;;11.14;38.43;100460.14;1687335;84;21181;-87
2021/04/25 11:00:42;;;;;;;8.80;3.90;;;;;;;11.08;38.70;100459.06;1701009;82;21088;-86
2021/04/25 11:03:14;;;;;;;7.17;6.03;;;;;;;11.12;38.52;100460.84;1643564;85;21220;-88
2021/04/25 11:05:45;;;;;;;3.53;2.57;;;;;;;11.13;39.06;100460.33;1690569;84;21219;-87
2021/04/25 11:08:23;;;;;;;6.97;3.20;;;;;;;11.09;38.57;100458.55;1686678;83;21186;-88
2021/04/25 11:11:08;;;;;;;3.05;2.85;;;;;;;11.06;38.65;100460.27;1678083;83;21190;-81
2021/04/25 11:16:20;;;;;;;3.57;2.90;;;;;;;11.04;39.17;100461.79;1677525;84;21218;-86
2021/04/25 11:19:09;;;;;;;5.20;3.77;;;;;;;11.00;39.30;100465.00;1679556;84;21175;-94
2021/04/25 11:32:39;;;;;;;6.07;4.50;;;;;;;10.43;42.92;100463.89;1809518;77;22936;-96
2021/04/25 11:35:11;;;;;;;5.27;4.53;;;;;;;10.30;42.56;100471.16;1717405;81;21236;-96
2021/04/25 11:37:50;;;;;;;5.57;4.83;;;;;;;10.20;43.80;100467.95;1718696;82;21166;-95
2021/04/25 11:40:31;;;;;;;9.77;5.57;;;;;;;10.15;43.67;100465.81;1778015;77;22340;-96
2021/04/25 11:43:01;;;;;;;6.37;4.10;;;;;;;10.09;44.13;100478.54;1738697;81;21695;-96
2021/04/25 11:45:30;;;;;;;8.77;4.67;;;;;;;10.02;46.50;100475.79;1694711;82;21128;-93
2021/04/25 11:48:05;;;;;;;5.80;4.63;;;;;;;9.92;46.37;100477.36;1675395;83;21270;-96
2021/04/25 11:50:37;;;;;;;;;;;;;;;9.82;46.46;100467.98;1673517;81;21186;-96
2021/04/25 11:53:05;;;;;;;7.30;5.40;;;;;;;9.76;47.31;100464.21;1669843;84;20172;-95
2021/04/25 11:55:34;;;;;;;6.37;5.70;;;;;;;9.67;48.30;100470.61;1661912;80;21243;-96
2021/04/25 11:58:02;;;;;;;7.60;4.67;;;;;;;9.64;50.90;100471.77;1660207;86;21203;-96
2021/04/25 12:00:35;;;;;;;8.23;4.77;;;;;;;9.60;49.65;100470.99;1630434;86;21092;-95